Time;durP1;ratioP1;P1;durP2;ratioP2;P2;SDS_P1;SDS_P2;PMS_P1;PMS_P2;Temp;Humidity;BMP_temperature;BMP_pressure;BME280_temperature;BME280_humidity;BME280_pressure;Samples;Min_cycle;Max_cycle;Signal;HPM_P1;HPM_P2
2022/07/30 00:00:05;;;;;;;8.90;8.00;;;;;;;;;;5087219;28;20184;-79
2022/07/30 00:02:32;;;;;;;8.23;7.43;;;;;;;;;;5077613;28;20240;-80
2022/07/30 00:04:58;;;;;;;9.13;8.27;;;;;;;;;;5069266;28;20257;-79
2022/07/30 00:07:24;;;;;;;8.13;7.10;;;;;;;;;;5073348;28;20181;-79
2022/07/30 00:09:50;;;;;;;8.33;7.53;;;;;;;;;;5058829;28;20194;-79
2022/07/30 00:12:16;;;;;;;9.33;8.53;;;;;;;;;;5052796;28;20528;-80
2022/07/30 00:14:42;;;;;;;11.53;8.53;;;;;;;;;;5052814;28;20550;-79
2022/07/30 00:17:09;;;;;;;9.80;8.87;;;;;;;;;;5067042;28;20589;-79
2022/07/30 00:19:35;;;;;;;9.20;8.40;;;;;;;;;;5061735;28;20273;-80
2022/07/30 00:22:02;;;;;;;9.63;8.47;;;;;;;;;;5068909;28;20218;-80
2022/07/30 00:24:28;;;;;;;9.00;8.20;;;;;;;;;;5072563;28;20197;-79
2022/07/30 00:26:54;;;;;;;10.07;9.17;;;;;;;;;;5053987;28;20190;-80
2022/07/30 00:29:20;;;;;;;10.20;8.60;;;;;;;;;;5058456;28;20736;-79
2022/07/30 00:31:46;;;;;;;9.77;8.70;;;;;;;;;;5047872;28;20179;-79
2022/07/30 00:34:14;;;;;;;9.57;8.67;;;;;;;;;;5066426;28;20548;-79
2022/07/30 00:36:41;;;;;;;15.37;9.37;;;;;;;;;;5067686;28;20222;-79
2022/07/30 00:39:07;;;;;;;8.90;8.00;;;;;;;;;;5075224;28;20198;-80
2022/07/30 00:41:33;;;;;;;10.17;8.97;;;;;;;;;;5064632;28;20196;-81
2022/07/30 00:43:59;;;;;;;9.27;8.37;;;;;;;;;;5067383;28;20202;-82
2022/07/30 00:46:26;;;;;;;9.07;8.17;;;;;;;;;;5065545;28;20671;-82
2022/07/30 00:48:52;;;;;;;8.73;7.93;;;;;;;;;;5077462;28;20197;-81
2022/07/30 00:51:18;;;;;;;8.50;7.80;;;;;;;;;;5067788;28;20268;-81
2022/07/30 00:53:44;;;;;;;8.23;7.50;;;;;;;;;;5070323;28;20205;-82
2022/07/30 00:56:10;;;;;;;10.30;8.70;;;;;;;;;;5071889;28;20184;-82
2022/07/30 00:58:37;;;;;;;9.73;8.53;;;;;;;;;;5075205;28;20188;-82
2022/07/30 01:01:03;;;;;;;8.40;7.50;;;;;;;;;;5074894;28;20181;-82
2022/07/30 01:03:29;;;;;;;9.13;8.20;;;;;;;;;;5064029;28;20225;-82
2022/07/30 01:05:55;;;;;;;8.70;7.80;;;;;;;;;;5067241;28;20182;-82
2022/07/30 01:08:21;;;;;;;9.30;8.50;;;;;;;;;;5075798;28;20205;-81
2022/07/30 01:10:47;;;;;;;8.57;7.67;;;;;;;;;;5069840;28;20205;-82
2022/07/30 01:13:14;;;;;;;10.30;9.40;;;;;;;;;;5070655;28;20276;-81
2022/07/30 01:15:40;;;;;;;8.77;7.73;;;;;;;;;;5071615;28;20177;-81
2022/07/30 01:18:09;;;;;;;8.37;7.60;;;;;;;;;;5077946;28;20181;-82
2022/07/30 01:20:59;;;;;;;10.80;8.67;;;;;;;;;;5068352;28;20200;-81
2022/07/30 01:23:30;;;;;;;8.53;7.80;;;;;;;;;;5069088;28;20302;-82
2022/07/30 01:26:10;;;;;;;10.37;9.37;;;;;;;;;;5021607;28;20674;-82
2022/07/30 01:28:38;;;;;;;9.93;8.93;;;;;;;;;;5055225;28;20614;-81
2022/07/30 01:31:06;;;;;;;9.77;8.77;;;;;;;;;;5071993;28;20717;-82
2022/07/30 01:33:34;;;;;;;10.87;9.80;;;;;;;;;;5053747;28;20296;-81
2022/07/30 01:36:01;;;;;;;8.60;7.80;;;;;;;;;;5073028;28;20209;-81
2022/07/30 01:38:28;;;;;;;9.50;8.63;;;;;;;;;;5068800;28;20233;-82
2022/07/30 01:40:55;;;;;;;8.77;7.97;;;;;;;;;;5065409;28;20192;-81
2022/07/30 01:43:23;;;;;;;9.07;8.27;;;;;;;;;;5087557;28;20209;-82
2022/07/30 01:45:51;;;;;;;9.10;8.20;;;35.20;38.90;;;;;;5072451;28;20273;-82
2022/07/30 01:48:20;;;;;;;11.03;9.50;;;20.10;99.90;;;;;;5084035;28;20208;-82
2022/07/30 01:50:51;;;;;;;8.53;7.73;;;19.90;99.90;;;;;;5071445;28;20203;-83
2022/07/30 01:53:22;;;;;;;9.20;8.30;;;19.70;99.90;;;;;;5077940;28;20207;-82
2022/07/30 01:55:52;;;;;;;9.10;8.30;;;19.60;99.90;;;;;;5070811;28;20212;-82
2022/07/30 01:58:21;;;;;;;9.60;8.80;;;19.60;99.90;;;;;;5069315;28;20186;-82
2022/07/30 02:00:54;;;;;;;9.70;8.90;;;19.60;99.90;;;;;;5080428;28;20188;-81
2022/07/30 02:03:21;;;;;;;10.10;9.20;;;19.60;99.90;;;;;;5076824;28;20204;-82
2022/07/30 02:05:54;;;;;;;9.37;8.47;;;19.60;99.90;;;;;;5069203;28;20854;-82
2022/07/30 02:08:36;;;;;;;10.70;9.70;;;19.60;99.90;;;;;;5071722;28;20220;-82
2022/07/30 02:12:27;;;;;;;9.20;8.40;;;19.60;99.90;;;;;;5090755;28;20709;-81
2022/07/30 02:14:07;;;;;;;10.33;9.33;;;19.70;99.90;;;;;;5073504;28;20205;-81
2022/07/30 02:16:37;;;;;;;10.33;9.40;;;19.60;99.90;;;;;;5073610;28;20256;-81
2022/07/30 02:19:15;;;;;;;10.30;9.30;;;19.60;99.90;;;;;;5056708;28;20185;-81
2022/07/30 02:21:47;;;;;;;9.53;8.67;;;19.60;99.90;;;;;;5072877;28;20263;-81
2022/07/30 02:24:18;;;;;;;10.97;9.30;;;19.60;99.90;;;;;;5039831;28;20208;-82
2022/07/30 02:26:49;;;;;;;11.03;9.87;;;19.50;99.90;;;;;;5042404;28;20192;-83
2022/07/30 02:29:17;;;;;;;9.37;8.47;;;19.50;99.90;;;;;;5067074;28;20208;-82
2022/07/30 02:31:47;;;;;;;10.20;9.23;;;19.50;99.90;;;;;;5075699;28;20723;-81
2022/07/30 02:34:15;;;;;;;10.07;9.07;;;19.50;99.90;;;;;;5056573;28;20201;-81
2022/07/30 02:36:42;;;;;;;9.40;8.50;;;19.40;99.90;;;;;;5064546;28;20549;-81
2022/07/30 02:39:08;;;;;;;10.03;9.13;;;19.40;99.90;;;;;;5080703;28;20629;-82
2022/07/30 02:41:38;;;;;;;10.57;9.63;;;19.40;99.90;;;;;;5076625;28;20292;-82
2022/07/30 02:44:05;;;;;;;10.50;9.50;;;19.30;99.90;;;;;;5077497;28;20263;-82
2022/07/30 02:46:32;;;;;;;10.27;9.37;;;19.30;99.90;;;;;;5083605;28;20177;-82
2022/07/30 02:49:28;;;;;;;10.10;9.13;;;19.30;99.90;;;;;;5063428;28;20304;-82
2022/07/30 02:51:55;;;;;;;8.93;8.17;;;19.30;99.90;;;;;;5065177;28;20189;-82
2022/07/30 02:54:22;;;;;;;10.27;9.37;;;19.20;99.90;;;;;;5056751;28;20708;-82
2022/07/30 02:56:50;;;;;;;9.70;8.77;;;19.20;99.90;;;;;;5046103;28;20185;-82
2022/07/30 02:59:18;;;;;;;10.53;9.43;;;19.10;99.90;;;;;;5052687;28;20234;-82
2022/07/30 03:01:46;;;;;;;10.90;9.90;;;19.10;99.90;;;;;;5056357;28;20185;-82
2022/07/30 03:04:14;;;;;;;9.47;8.57;;;19.20;99.90;;;;;;5076084;28;20199;-82
2022/07/30 03:06:42;;;;;;;9.40;8.60;;;19.10;99.90;;;;;;5058784;28;20182;-82
2022/07/30 03:09:09;;;;;;;9.33;8.43;;;19.10;99.90;;;;;;5064471;28;21001;-83
2022/07/30 03:11:36;;;;;;;9.53;8.53;;;19.10;99.90;;;;;;5071586;28;20232;-82
2022/07/30 03:14:02;;;;;;;9.80;8.80;;;19.10;99.90;;;;;;5090405;28;20241;-81
2022/07/30 03:16:30;;;;;;;11.87;10.77;;;19.10;99.90;;;;;;5077401;28;20239;-82
2022/07/30 03:19:01;;;;;;;10.60;9.50;;;19.00;99.90;;;;;;5076355;28;20184;-82
2022/07/30 03:21:28;;;;;;;9.50;8.70;;;19.00;99.90;;;;;;5070498;28;20177;-81
2022/07/30 03:23:57;;;;;;;9.60;8.70;;;18.90;99.90;;;;;;5062938;28;20205;-81
2022/07/30 03:26:24;;;;;;;10.90;9.80;;;18.90;99.90;;;;;;5063332;28;20178;-82
2022/07/30 03:28:52;;;;;;;10.10;9.20;;;18.90;99.90;;;;;;5068666;28;20204;-82
2022/07/30 03:31:18;;;;;;;9.30;8.40;;;18.70;99.90;;;;;;5071123;28;20223;-82
2022/07/30 03:33:45;;;;;;;9.53;8.63;;;18.60;99.90;;;;;;5063439;28;20201;-82
2022/07/30 03:36:12;;;;;;;9.73;8.87;;;18.60;99.90;;;;;;5055562;28;20181;-81
2022/07/30 03:38:41;;;;;;;11.40;10.20;;;18.60;99.90;;;;;;5064066;28;20200;-81
2022/07/30 03:41:09;;;;;;;11.47;10.40;;;18.70;99.90;;;;;;5067649;28;20934;-82
2022/07/30 03:43:36;;;;;;;10.63;9.23;;;18.70;99.90;;;;;;5061097;28;20209;-81
2022/07/30 03:46:04;;;;;;;11.10;9.93;;;18.70;99.90;;;;;;5071438;28;20185;-82
2022/07/30 03:48:34;;;;;;;10.43;9.40;;;18.70;99.90;;;;;;5070167;28;20200;-83
2022/07/30 03:51:05;;;;;;;11.23;10.13;;;18.70;99.90;;;;;;5066142;28;20227;-82
2022/07/30 03:53:31;;;;;;;10.37;9.37;;;18.60;99.90;;;;;;5076118;28;20193;-82
2022/07/30 03:56:36;;;;;;;10.30;9.40;;;18.50;99.90;;;;;;5057923;28;20193;-83
2022/07/30 03:59:25;;;;;;;11.03;9.93;;;18.50;99.90;;;;;;5063693;28;20197;-82
2022/07/30 04:01:51;;;;;;;11.37;10.27;;;18.40;99.90;;;;;;5072498;28;20177;-82
2022/07/30 04:04:34;;;;;;;11.87;10.67;;;18.40;99.90;;;;;;5066768;28;20238;-81
2022/07/30 04:07:01;;;;;;;10.83;9.83;;;18.40;99.90;;;;;;5045752;28;20190;-81
2022/07/30 04:09:28;;;;;;;13.13;11.80;;;18.40;99.90;;;;;;5061217;28;20209;-82
2022/07/30 04:11:54;;;;;;;12.13;11.07;;;18.40;99.90;;;;;;5077773;28;20189;-81
2022/07/30 04:14:24;;;;;;;10.60;9.60;;;18.40;99.90;;;;;;5073723;28;20276;-82
2022/07/30 04:17:02;;;;;;;11.37;10.30;;;18.50;99.90;;;;;;5058160;28;20186;-81
2022/07/30 04:19:33;;;;;;;10.23;9.33;;;18.50;99.90;;;;;;5066772;28;20181;-82
2022/07/30 04:22:00;;;;;;;10.43;9.50;;;18.50;99.90;;;;;;5070153;28;20173;-81
2022/07/30 04:24:28;;;;;;;11.13;10.00;;;18.50;99.90;;;;;;5079819;28;20274;-82
2022/07/30 04:26:59;;;;;;;11.40;9.43;;;18.50;99.90;;;;;;5083321;28;20192;-82
2022/07/30 04:29:25;;;;;;;10.73;9.63;;;18.50;99.90;;;;;;5071161;28;20324;-81
2022/07/30 04:31:53;;;;;;;9.63;8.67;;;18.50;99.90;;;;;;5063027;28;20182;-81
2022/07/30 04:34:52;;;;;;;11.07;10.07;;;18.50;99.90;;;;;;5063741;28;20208;-81
2022/07/30 04:37:38;;;;;;;10.20;9.20;;;18.50;99.90;;;;;;5073244;28;20686;-81
2022/07/30 04:40:05;;;;;;;10.43;9.43;;;18.50;99.90;;;;;;5070020;28;20181;-81
2022/07/30 04:42:31;;;;;;;8.33;7.53;;;18.50;99.90;;;;;;5073008;28;20202;-82
2022/07/30 04:45:05;;;;;;;10.27;9.27;;;18.60;99.90;;;;;;5058965;28;20200;-81
2022/07/30 04:47:43;;;;;;;10.47;9.53;;;18.60;99.90;;;;;;5064718;28;20164;-83
2022/07/30 04:50:28;;;;;;;8.43;7.57;;;18.60;99.90;;;;;;5065325;28;20527;-83
2022/07/30 04:52:55;;;;;;;8.07;7.37;;;18.60;99.90;;;;;;5068803;28;20230;-82
2022/07/30 04:55:26;;;;;;;8.67;7.97;;;18.50;99.90;;;;;;5058774;28;20181;-81
2022/07/30 04:57:53;;;;;;;9.23;8.37;;;18.50;99.90;;;;;;5050426;28;20190;-82
2022/07/30 05:00:19;;;;;;;9.33;8.53;;;18.50;99.90;;;;;;5073805;28;20264;-82
2022/07/30 05:02:47;;;;;;;8.97;8.17;;;18.40;99.90;;;;;;5066067;28;20220;-81
2022/07/30 05:05:14;;;;;;;9.07;8.27;;;18.40;99.90;;;;;;5076620;28;20184;-82
2022/07/30 05:07:42;;;;;;;8.47;7.67;;;18.40;99.90;;;;;;5068077;28;20193;-81
2022/07/30 05:10:10;;;;;;;9.37;8.57;;;18.40;99.90;;;;;;5071290;28;20279;-81
2022/07/30 05:12:36;;;;;;;9.27;8.03;;;18.40;99.90;;;;;;5069465;28;20181;-82
2022/07/30 05:15:06;;;;;;;10.20;8.87;;;18.50;99.90;;;;;;5046148;28;20231;-81
2022/07/30 05:17:32;;;;;;;10.20;9.20;;;18.60;99.90;;;;;;5067661;28;20220;-81
2022/07/30 05:19:58;;;;;;;9.90;8.50;;;18.70;99.90;;;;;;5065789;28;20184;-82
2022/07/30 05:22:26;;;;;;;9.90;8.93;;;18.80;99.90;;;;;;5084998;28;20188;-82
2022/07/30 05:24:52;;;;;;;10.27;8.43;;;18.90;99.90;;;;;;5068891;28;20205;-82
2022/07/30 05:27:19;;;;;;;9.00;8.03;;;18.90;99.90;;;;;;5058618;28;20185;-82
2022/07/30 05:29:45;;;;;;;9.27;7.57;;;19.00;99.90;;;;;;5078144;28;20749;-81
2022/07/30 05:32:16;;;;;;;8.97;8.07;;;19.00;99.90;;;;;;5066637;28;20264;-81
2022/07/30 05:34:42;;;;;;;8.77;7.97;;;19.00;99.90;;;;;;5065583;28;20212;-81
2022/07/30 05:37:08;;;;;;;8.60;7.73;;;19.00;99.90;;;;;;5067911;28;20182;-81
2022/07/30 05:39:33;;;;;;;9.37;8.37;;;19.00;99.90;;;;;;5069761;28;20669;-81
2022/07/30 05:42:34;;;;;;;9.20;8.17;;;19.10;99.90;;;;;;5052037;28;20640;-81
2022/07/30 05:45:00;;;;;;;9.80;8.83;;;19.20;99.90;;;;;;5065102;28;20212;-81
2022/07/30 05:47:26;;;;;;;9.63;8.67;;;19.30;99.90;;;;;;5073841;28;20189;-81
2022/07/30 05:49:52;;;;;;;9.83;8.20;;;19.40;99.90;;;;;;5066186;28;20273;-81
2022/07/30 05:52:18;;;;;;;7.77;7.07;;;19.40;99.90;;;;;;5064054;28;20216;-81
2022/07/30 05:54:44;;;;;;;9.33;8.53;;;19.50;99.90;;;;;;5050826;28;20289;-81
2022/07/30 05:57:28;;;;;;;8.73;7.87;;;19.50;99.90;;;;;;5089302;28;20178;-81
2022/07/30 05:59:56;;;;;;;8.90;8.00;;;19.50;99.90;;;;;;5077441;28;20196;-81
2022/07/30 06:02:26;;;;;;;8.90;8.00;;;19.50;99.90;;;;;;5069399;28;20195;-81
2022/07/30 06:04:59;;;;;;;9.23;7.90;;;19.50;99.90;;;;;;5086733;28;20663;-81
2022/07/30 06:07:25;;;;;;;9.40;8.40;;;19.60;99.90;;;;;;5088726;28;20169;-81
2022/07/30 06:09:58;;;;;;;7.97;7.27;;;19.70;99.90;;;;;;5075948;28;20291;-82
2022/07/30 06:12:29;;;;;;;8.57;7.80;;;19.70;99.90;;;;;;5095800;28;20574;-83
2022/07/30 06:14:56;;;;;;;8.63;7.83;;;19.70;99.90;;;;;;5061529;28;20205;-83
2022/07/30 06:17:27;;;;;;;9.30;8.40;;;19.80;99.90;;;;;;5067149;28;20192;-83
2022/07/30 06:20:12;;;;;;;10.43;8.10;;;19.90;99.90;;;;;;5056530;28;20212;-81
2022/07/30 06:22:55;;;;;;;11.13;9.33;;;19.90;99.90;;;;;;5048500;28;20200;-81
2022/07/30 06:25:30;;;;;;;9.20;8.20;;;19.90;99.90;;;;;;5053191;28;20211;-80
2022/07/30 06:27:56;;;;;;;10.13;9.10;;;20.00;99.90;;;;;;5056507;28;20654;-81
2022/07/30 06:30:23;;;;;;;8.67;7.87;;;19.90;99.90;;;;;;5057494;28;20208;-81
2022/07/30 06:32:48;;;;;;;9.67;8.67;;;20.00;99.90;;;;;;5071970;28;20207;-81
2022/07/30 06:35:16;;;;;;;9.23;8.33;;;20.00;99.90;;;;;;5059105;28;20182;-81
2022/07/30 06:37:41;;;;;;;8.70;7.90;;;20.00;99.90;;;;;;5075707;28;20594;-81
2022/07/30 06:40:08;;;;;;;9.77;8.20;;;20.10;99.90;;;;;;5073596;28;20202;-81
2022/07/30 06:42:51;;;;;;;9.90;8.70;;;20.20;99.90;;;;;;5053283;28;20269;-81
2022/07/30 06:45:46;;;;;;;9.23;8.37;;;20.30;99.90;;;;;;5043104;28;20187;-81
2022/07/30 06:48:20;;;;;;;11.67;8.70;;;20.30;99.90;;;;;;5079561;28;20202;-81
2022/07/30 06:50:46;;;;;;;8.97;8.07;;;20.40;99.90;;;;;;5073769;28;20260;-81
2022/07/30 06:53:12;;;;;;;13.50;8.30;;;20.40;99.90;;;;;;5069193;28;20248;-81
2022/07/30 06:55:58;;;;;;;10.07;8.20;;;20.50;99.90;;;;;;5067480;28;20181;-80
2022/07/30 06:58:25;;;;;;;8.03;7.00;;;20.40;99.90;;;;;;5068959;28;20235;-81
2022/07/30 07:01:09;;;;;;;8.93;7.43;;;20.50;99.90;;;;;;5078984;28;20579;-82
2022/07/30 07:03:35;;;;;;;9.70;8.33;;;20.50;99.90;;;;;;5056653;28;20383;-81
2022/07/30 07:06:01;;;;;;;10.20;7.93;;;20.60;99.90;;;;;;5072297;28;20658;-83
2022/07/30 07:08:27;;;;;;;8.33;7.20;;;20.60;99.90;;;;;;5074830;28;20686;-83
2022/07/30 07:10:55;;;;;;;9.40;8.43;;;20.60;99.90;;;;;;5082360;28;20185;-83
2022/07/30 07:13:29;;;;;;;8.77;7.87;;;20.70;99.90;;;;;;5082837;28;20192;-83
2022/07/30 07:15:57;;;;;;;8.73;7.57;;;20.70;99.90;;;;;;5067439;28;20204;-83
2022/07/30 07:18:25;;;;;;;10.30;8.60;;;20.70;99.90;;;;;;5070943;28;20185;-80
2022/07/30 07:20:56;;;;;;;10.27;7.73;;;20.80;99.90;;;;;;5079674;28;20191;-81
2022/07/30 07:23:22;;;;;;;9.57;8.57;;;20.90;99.90;;;;;;5090908;28;20208;-81
2022/07/30 07:25:51;;;;;;;8.43;7.57;;;20.90;99.90;;;;;;5076840;28;20191;-81
2022/07/30 07:28:17;;;;;;;10.27;7.83;;;20.90;99.90;;;;;;5072588;28;20197;-81
2022/07/30 07:30:43;;;;;;;10.90;8.20;;;21.00;99.90;;;;;;5049641;28;20178;-81
2022/07/30 07:33:11;;;;;;;9.23;8.23;;;21.20;99.90;;;;;;5071337;28;20212;-81
2022/07/30 07:35:37;;;;;;;8.60;7.70;;;21.40;99.90;;;;;;5059888;28;20543;-82
2022/07/30 07:38:03;;;;;;;8.73;7.07;;;21.60;99.90;;;;;;5061144;28;20197;-81
2022/07/30 07:40:28;;;;;;;8.87;7.10;;;21.80;99.90;;;;;;5081003;28;20181;-81
2022/07/30 07:42:55;;;;;;;8.53;6.57;;;22.00;99.90;;;;;;5062041;28;20229;-81
2022/07/30 07:45:22;;;;;;;6.67;6.03;;;22.20;97.10;;;;;;5084445;28;20264;-81
2022/07/30 07:47:54;;;;;;;8.00;5.63;;;22.40;94.60;;;;;;5078010;28;20206;-81
2022/07/30 07:50:40;;;;;;;7.53;6.40;;;22.60;92.10;;;;;;5060392;28;20196;-81
2022/07/30 07:53:12;;;;;;;7.77;6.87;;;22.80;96.50;;;;;;5069438;28;20273;-81
2022/07/30 07:55:38;;;;;;;7.27;6.27;;;22.80;92.90;;;;;;5068460;28;20189;-81
2022/07/30 07:58:04;;;;;;;8.43;6.70;;;22.90;98.30;;;;;;5069118;28;20620;-81
2022/07/30 08:00:31;;;;;;;7.77;6.20;;;22.90;91.50;;;;;;5079387;28;20186;-82
2022/07/30 08:02:57;;;;;;;9.93;6.73;;;22.90;85.00;;;;;;5067699;28;21201;-82
2022/07/30 08:05:23;;;;;;;8.90;6.20;;;22.80;85.60;;;;;;5075792;28;20212;-81
2022/07/30 08:08:03;;;;;;;8.07;5.60;;;22.60;87.40;;;;;;5074930;28;20209;-84
2022/07/30 08:10:48;;;;;;;7.87;5.93;;;22.70;89.80;;;;;;5072178;28;20315;-84
2022/07/30 08:13:43;;;;;;;7.43;5.60;;;22.70;89.40;;;;;;5071867;28;20213;-84
2022/07/30 08:16:28;;;;;;;8.40;6.43;;;22.80;90.10;;;;;;5072448;28;20531;-81
2022/07/30 08:19:20;;;;;;;10.10;6.67;;;22.80;83.00;;;;;;5075827;28;20177;-81
2022/07/30 08:22:04;;;;;;;8.63;5.90;;;22.70;81.20;;;;;;5084117;28;20199;-82
2022/07/30 08:24:30;;;;;;;8.33;5.90;;;22.80;82.10;;;;;;5076108;28;20196;-81
2022/07/30 08:26:56;;;;;;;7.90;7.00;;;22.80;80.20;;;;;;5062755;28;20197;-81
2022/07/30 08:29:22;;;;;;;7.77;6.27;;;22.90;75.50;;;;;;5068801;28;22203;-81
2022/07/30 08:31:48;;;;;;;8.30;6.30;;;23.00;76.50;;;;;;5066158;28;20282;-81
2022/07/30 08:34:14;;;;;;;9.27;6.10;;;23.00;77.70;;;;;;5076053;28;20257;-82
2022/07/30 08:36:40;;;;;;;11.07;7.07;;;23.00;75.20;;;;;;5067579;28;20238;-81
2022/07/30 08:39:06;;;;;;;7.60;6.83;;;23.10;75.50;;;;;;5066449;28;20181;-82
2022/07/30 08:41:34;;;;;;;8.37;6.70;;;23.20;72.40;;;;;;5073760;28;20258;-81
2022/07/30 08:44:03;;;;;;;7.13;6.43;;;23.10;69.00;;;;;;5064084;28;20208;-81
2022/07/30 08:46:32;;;;;;;11.33;5.87;;;23.10;68.80;;;;;;5076209;28;20736;-81
2022/07/30 08:49:06;;;;;;;7.80;5.33;;;23.20;70.20;;;;;;5050492;28;20215;-81
2022/07/30 08:51:34;;;;;;;9.33;7.13;;;23.30;70.10;;;;;;5043428;28;22033;-81
2022/07/30 08:54:06;;;;;;;8.73;6.80;;;23.30;71.00;;;;;;5061752;28;20203;-81
2022/07/30 08:56:33;;;;;;;8.97;7.57;;;23.50;69.30;;;;;;5065486;28;20561;-81
2022/07/30 08:59:00;;;;;;;10.63;8.10;;;23.70;67.20;;;;;;5069009;28;20264;-81
2022/07/30 09:01:25;;;;;;;7.50;6.03;;;23.80;64.80;;;;;;5066908;28;20264;-81
2022/07/30 09:03:55;;;;;;;7.67;6.23;;;23.90;62.60;;;;;;5069589;28;20219;-81
2022/07/30 09:06:21;;;;;;;9.10;6.13;;;23.90;62.60;;;;;;5076716;28;20200;-81
2022/07/30 09:08:47;;;;;;;7.77;6.10;;;24.00;63.00;;;;;;5084162;28;20255;-82
2022/07/30 09:11:13;;;;;;;10.00;6.37;;;24.10;62.70;;;;;;5074525;28;20891;-82
2022/07/30 09:13:41;;;;;;;6.90;6.20;;;24.20;61.90;;;;;;5073914;28;20197;-81
2022/07/30 09:16:22;;;;;;;7.70;5.90;;;24.20;59.60;;;;;;5077278;28;20185;-81
2022/07/30 09:18:49;;;;;;;6.47;5.53;;;24.30;59.70;;;;;;5077042;28;20197;-82
2022/07/30 09:21:23;;;;;;;8.60;5.70;;;24.50;59.80;;;;;;5080925;28;20182;-82
2022/07/30 09:23:59;;;;;;;9.10;5.40;;;24.60;59.30;;;;;;5079616;28;20258;-81
2022/07/30 09:27:03;;;;;;;8.10;4.63;;;24.70;57.30;;;;;;5090324;28;20180;-82
2022/07/30 09:29:41;;;;;;;5.23;4.00;;;24.80;57.50;;;;;;5074209;28;20205;-82
2022/07/30 09:32:47;;;;;;;6.70;5.00;;;24.90;57.30;;;;;;5051977;28;20236;-82
2022/07/30 09:35:31;;;;;;;4.03;3.50;;;25.00;54.90;;;;;;5078232;28;20186;-81
2022/07/30 09:38:10;;;;;;;7.33;4.50;;;25.00;56.00;;;;;;5073299;28;20189;-81
2022/07/30 09:40:52;;;;;;;6.03;3.80;;;25.20;55.70;;;;;;5067991;28;20177;-82
2022/07/30 09:43:44;;;;;;;6.83;4.60;;;25.30;55.10;;;;;;5079713;28;20213;-81
2022/07/30 09:46:18;;;;;;;6.93;4.20;;;25.40;54.10;;;;;;5070665;28;20191;-81
2022/07/30 09:48:47;;;;;;;6.07;4.43;;;25.40;54.30;;;;;;5084764;28;20270;-82
2022/07/30 09:51:13;;;;;;;4.87;3.93;;;25.60;54.60;;;;;;5069785;28;20185;-81
2022/07/30 09:53:58;;;;;;;7.97;4.77;;;26.00;54.70;;;;;;5063393;28;20210;-79
2022/07/30 09:56:26;;;;;;;4.70;4.30;;;26.20;53.10;;;;;;5071263;28;20174;-80
2022/07/30 09:58:53;;;;;;;5.07;4.30;;;26.10;53.00;;;;;;5067070;28;20607;-81
2022/07/30 10:01:19;;;;;;;6.93;3.90;;;26.10;53.40;;;;;;5054608;28;20557;-77
2022/07/30 10:04:03;;;;;;;6.47;4.40;;;26.10;53.60;;;;;;5070202;28;20208;-78
2022/07/30 10:06:56;;;;;;;5.37;3.90;;;26.20;53.00;;;;;;5076997;28;20206;-82
2022/07/30 10:09:31;;;;;;;6.10;3.80;;;26.30;53.30;;;;;;5070851;28;20591;-80
2022/07/30 10:12:09;;;;;;;5.50;4.10;;;26.40;53.00;;;;;;5072440;28;20197;-78
2022/07/30 10:14:37;;;;;;;4.77;3.70;;;26.50;52.30;;;;;;5063788;28;20274;-85
2022/07/30 10:17:03;;;;;;;10.47;4.30;;;26.40;52.30;;;;;;5056495;28;20193;-87
2022/07/30 10:19:32;;;;;;;6.47;4.10;;;26.40;52.40;;;;;;5070382;28;20555;-86
2022/07/30 10:21:59;;;;;;;5.77;3.63;;;26.30;52.30;;;;;;5084692;28;20190;-86
2022/07/30 10:25:00;;;;;;;5.93;3.83;;;26.20;51.70;;;;;;5085354;28;20208;-83
2022/07/30 10:27:47;;;;;;;5.93;3.87;;;26.10;51.40;;;;;;5080470;28;20187;-82
2022/07/30 10:30:26;;;;;;;4.27;3.30;;;26.10;51.40;;;;;;5069917;28;20181;-84
2022/07/30 10:32:52;;;;;;;5.37;3.77;;;26.10;52.10;;;;;;5076257;28;20176;-83
2022/07/30 10:35:19;;;;;;;5.43;3.63;;;26.30;52.10;;;;;;5078405;28;20174;-86
2022/07/30 10:37:49;;;;;;;3.80;3.40;;;26.30;51.80;;;;;;5055450;28;20643;-86
2022/07/30 10:40:36;;;;;;;5.37;3.43;;;26.50;51.60;;;;;;5082783;28;20700;-85
2022/07/30 10:43:22;;;;;;;5.03;3.30;;;26.80;51.50;;;;;;5065385;28;20181;-85
2022/07/30 10:46:18;;;;;;;5.43;3.40;;;26.90;49.50;;;;;;5066111;28;20263;-85
2022/07/30 10:48:44;;;;;;;4.13;3.10;;;27.00;48.50;;;;;;5059508;28;20596;-81
2022/07/30 10:51:10;;;;;;;3.67;2.90;;;27.30;48.60;;;;;;5073034;28;20190;-82
2022/07/30 10:53:39;;;;;;;4.90;2.80;;;27.40;48.20;;;;;;5072169;28;20208;-82
2022/07/30 10:56:20;;;;;;;3.87;2.30;;;27.50;48.00;;;;;;5080531;28;20232;-82
2022/07/30 10:59:04;;;;;;;3.87;2.50;;;27.70;46.80;;;;;;5064776;28;20177;-83
2022/07/30 11:01:46;;;;;;;4.27;2.63;;;27.80;46.70;;;;;;5073592;28;20206;-82
2022/07/30 11:04:24;;;;;;;3.97;2.27;;;27.90;46.50;;;;;;5071713;28;20270;-82
2022/07/30 11:06:51;;;;;;;3.10;2.03;;;28.00;44.80;;;;;;5065657;28;20192;-82
2022/07/30 11:09:41;;;;;;;3.93;2.17;;;27.90;44.40;;;;;;5069506;28;20203;-82
2022/07/30 11:12:08;;;;;;;3.43;2.30;;;27.80;44.90;;;;;;5036876;28;20293;-80
2022/07/30 11:14:46;;;;;;;2.93;2.10;;;27.80;44.10;;;;;;5073864;28;20196;-81
2022/07/30 11:17:13;;;;;;;2.97;2.10;;;27.90;45.40;;;;;;5071402;28;20256;-81
2022/07/30 11:20:03;;;;;;;1.93;1.77;;;28.30;45.10;;;;;;5067821;28;20193;-81
2022/07/30 11:22:37;;;;;;;2.30;2.10;;;28.60;44.00;;;;;;5067819;28;20188;-81
2022/07/30 11:25:04;;;;;;;2.47;1.83;;;28.70;44.40;;;;;;5067700;28;20621;-83
2022/07/30 11:27:45;;;;;;;2.20;2.00;;;29.00;44.60;;;;;;5047960;28;20192;-83
2022/07/30 11:30:19;;;;;;;2.20;2.00;;;29.30;43.70;;;;;;5070136;28;20541;-82
2022/07/30 11:32:50;;;;;;;4.07;2.37;;;29.40;43.20;;;;;;5071879;28;20237;-84
2022/07/30 11:35:26;;;;;;;4.23;2.40;;;29.20;42.60;;;;;;5077141;28;20678;-81
2022/07/30 11:38:11;;;;;;;2.53;2.33;;;29.30;42.60;;;;;;5067960;28;20180;-78
2022/07/30 11:40:43;;;;;;;5.07;2.17;;;29.60;42.90;;;;;;5071670;28;20187;-79
2022/07/30 11:43:14;;;;;;;4.33;2.07;;;29.70;42.30;;;;;;5075653;28;20170;-79
2022/07/30 11:45:41;;;;;;;4.10;2.47;;;29.50;42.20;;;;;;5063313;28;20182;-78
2022/07/30 11:48:11;;;;;;;5.70;2.40;;;29.30;42.50;;;;;;5068198;28;20201;-79
2022/07/30 11:50:37;;;;;;;3.50;2.40;;;29.00;43.30;;;;;;5072096;28;20185;-80
2022/07/30 11:53:06;;;;;;;4.10;2.40;;;28.80;43.80;;;;;;5077481;28;20288;-79
2022/07/30 11:55:41;;;;;;;6.03;2.30;;;28.60;43.90;;;;;;5069086;28;21637;-78
2022/07/30 11:58:09;;;;;;;3.57;2.13;;;28.80;44.30;;;;;;5072169;28;20654;-78
2022/07/30 12:00:38;;;;;;;2.80;2.40;;;29.40;44.40;;;;;;5065440;28;20181;-77
2022/07/30 12:03:14;;;;;;;4.50;2.57;;;30.30;43.50;;;;;;5064176;28;20212;-77
2022/07/30 12:05:41;;;;;;;3.27;2.40;;;30.90;41.70;;;;;;5064111;28;20180;-78
2022/07/30 12:08:07;;;;;;;2.33;2.13;;;31.30;41.90;;;;;;5069898;28;20227;-78
2022/07/30 12:10:38;;;;;;;3.63;2.10;;;32.00;41.30;;;;;;5071845;28;20275;-78
2022/07/30 12:13:18;;;;;;;3.33;2.10;;;32.70;40.60;;;;;;5066755;28;20177;-78
2022/07/30 12:15:46;;;;;;;3.10;2.50;;;33.10;39.70;;;;;;5049679;28;20183;-78
2022/07/30 12:18:13;;;;;;;2.50;2.27;;;33.40;38.90;;;;;;5064746;28;20190;-78
2022/07/30 12:20:39;;;;;;;2.47;2.13;;;33.90;38.00;;;;;;5054715;28;20191;-77
2022/07/30 12:23:15;;;;;;;2.30;2.10;;;34.00;38.50;;;;;;5063943;28;20189;-78
2022/07/30 12:25:42;;;;;;;2.70;2.13;;;34.20;38.50;;;;;;5058509;28;20264;-78
2022/07/30 12:28:09;;;;;;;3.87;2.27;;;34.20;37.70;;;;;;5065229;28;20266;-77
2022/07/30 12:30:39;;;;;;;3.27;2.30;;;34.40;37.60;;;;;;5059951;28;20184;-78
2022/07/30 12:33:06;;;;;;;2.70;1.97;;;34.10;37.50;;;;;;5062905;28;20185;-78
2022/07/30 12:35:53;;;;;;;3.60;2.23;;;33.20;38.70;;;;;;5067092;28;20244;-77
2022/07/30 12:38:21;;;;;;;2.73;2.37;;;32.30;38.70;;;;;;5065994;28;20593;-78
2022/07/30 12:40:50;;;;;;;2.50;2.20;;;31.60;39.60;;;;;;5064547;28;20206;-78
2022/07/30 12:43:16;;;;;;;3.00;2.10;;;31.70;39.90;;;;;;5067488;28;20220;-78
2022/07/30 12:45:42;;;;;;;2.43;2.23;;;32.10;39.80;;;;;;5075134;28;20177;-78
2022/07/30 12:48:11;;;;;;;2.90;2.23;;;32.90;38.40;;;;;;5065685;28;20206;-78
2022/07/30 12:50:37;;;;;;;2.30;2.10;;;33.70;37.90;;;;;;5064403;28;20571;-78
2022/07/30 12:53:03;;;;;;;2.23;2.07;;;34.30;37.00;;;;;;5063802;28;20173;-77
2022/07/30 12:55:34;;;;;;;2.83;2.27;;;33.90;37.00;;;;;;5066872;28;20182;-77
2022/07/30 12:58:06;;;;;;;3.90;2.20;;;33.00;37.70;;;;;;5063542;28;20650;-77
2022/07/30 13:00:52;;;;;;;3.20;1.90;;;32.30;39.10;;;;;;5068210;28;20546;-78
2022/07/30 13:03:22;;;;;;;3.83;1.93;;;31.70;38.90;;;;;;5065565;28;20203;-77
2022/07/30 13:05:50;;;;;;;2.93;1.90;;;31.50;39.80;;;;;;5068184;28;20187;-78
2022/07/30 13:08:16;;;;;;;2.47;2.00;;;31.70;39.10;;;;;;5055569;28;20214;-77
2022/07/30 13:10:59;;;;;;;2.90;1.90;;;31.80;38.90;;;;;;5066276;28;20196;-77
2022/07/30 13:13:26;;;;;;;2.57;1.90;;;31.60;38.40;;;;;;5063182;28;20685;-78
2022/07/30 13:16:01;;;;;;;2.20;2.00;;;31.40;38.90;;;;;;5068445;28;20265;-81
2022/07/30 13:18:29;;;;;;;2.43;2.10;;;31.20;39.00;;;;;;5070550;28;20226;-82